createdAt,value
2023-05-11T00:02:12.012Z,10.04
2023-05-11T00:04:58.338Z,9.86
2023-05-11T00:07:44.511Z,9.80
2023-05-11T00:10:31.071Z,9.42
2023-05-11T00:13:17.999Z,9.67
2023-05-11T00:16:04.906Z,9.57
2023-05-11T00:18:51.389Z,9.61
2023-05-11T00:21:37.805Z,9.71
2023-05-11T00:24:24.285Z,9.75
2023-05-11T00:27:10.608Z,9.77
2023-05-11T00:29:56.763Z,9.78
2023-05-11T00:32:45.937Z,9.73
2023-05-11T00:35:32.755Z,9.74
2023-05-11T00:38:19.196Z,9.59
2023-05-11T00:41:06.431Z,9.62
2023-05-11T00:43:52.943Z,9.87
2023-05-11T00:46:39.709Z,9.72
2023-05-11T00:49:26.781Z,9.77
2023-05-11T00:52:13.217Z,9.87
2023-05-11T00:54:59.523Z,9.98
2023-05-11T00:57:46.568Z,9.92
2023-05-11T01:00:32.762Z,10.20
2023-05-11T01:03:19.501Z,9.91
2023-05-11T01:06:16.325Z,9.98
2023-05-11T01:09:09.318Z,9.97
2023-05-11T01:12:21.976Z,9.72
2023-05-11T01:15:12.559Z,9.88
2023-05-11T01:18:26.411Z,9.87
2023-05-11T01:21:17.074Z,9.54
2023-05-11T01:24:26.835Z,9.86
2023-05-11T01:27:38.817Z,9.71
2023-05-11T01:30:36.033Z,9.58
2023-05-11T01:33:30.890Z,9.90
2023-05-11T01:36:21.039Z,9.93
2023-05-11T01:39:12.939Z,9.59
2023-05-11T01:42:08.376Z,9.58
2023-05-11T01:44:57.726Z,9.77
2023-05-11T01:47:48.809Z,9.87
2023-05-11T01:50:37.708Z,9.77
2023-05-11T01:53:25.052Z,9.30
2023-05-11T01:56:12.147Z,9.61
2023-05-11T01:59:00.860Z,9.83
2023-05-11T02:01:47.636Z,9.79
2023-05-11T02:04:37.279Z,9.85
2023-05-11T02:07:24.724Z,9.98
2023-05-11T02:10:13.616Z,9.72
2023-05-11T02:13:02.387Z,9.85
2023-05-11T02:15:52.315Z,9.77
2023-05-11T02:18:41.042Z,9.76
2023-05-11T02:21:29.339Z,9.57
2023-05-11T02:24:16.627Z,9.68
2023-05-11T02:27:03.240Z,9.72
2023-05-11T02:29:49.879Z,9.83
2023-05-11T02:32:42.377Z,10.00
2023-05-11T02:35:30.302Z,9.99
2023-05-11T02:38:18.618Z,9.92
2023-05-11T02:41:09.163Z,9.95
2023-05-11T02:43:59.318Z,9.80
2023-05-11T02:46:48.808Z,10.12
2023-05-11T02:49:38.114Z,9.85
2023-05-11T02:52:29.311Z,10.05
2023-05-11T02:55:18.128Z,10.26
2023-05-11T02:58:05.080Z,10.00
2023-05-11T03:00:52.730Z,10.01
2023-05-11T03:03:39.530Z,10.13
2023-05-11T03:06:26.248Z,10.01
2023-05-11T03:09:13.059Z,10.00
2023-05-11T03:12:05.409Z,9.85
2023-05-11T03:14:54.566Z,10.03
2023-05-11T03:17:43.121Z,10.18
2023-05-11T03:20:36.266Z,10.32
2023-05-11T03:23:23.313Z,10.27
2023-05-11T03:26:12.078Z,10.24
2023-05-11T03:29:01.090Z,10.33
2023-05-11T03:31:51.003Z,10.30
2023-05-11T03:34:38.864Z,10.44
2023-05-11T03:37:27.563Z,10.29
2023-05-11T03:40:16.098Z,10.41
2023-05-11T03:43:17.971Z,10.22
2023-05-11T03:46:07.195Z,10.39
2023-05-11T03:48:55.360Z,10.47
2023-05-11T03:51:46.183Z,10.36
2023-05-11T03:54:32.844Z,10.49
2023-05-11T03:57:19.350Z,10.51
2023-05-11T04:00:11.217Z,10.53
2023-05-11T04:03:06.492Z,10.21
2023-05-11T04:05:52.787Z,10.44
2023-05-11T04:08:39.277Z,10.46
2023-05-11T04:11:27.495Z,10.31
2023-05-11T04:14:14.729Z,10.38
2023-05-11T04:17:02.032Z,10.35
2023-05-11T04:19:48.297Z,10.49
2023-05-11T04:22:34.674Z,10.48
2023-05-11T04:25:22.548Z,10.23
2023-05-11T04:28:08.615Z,10.45
2023-05-11T04:30:57.954Z,10.12
2023-05-11T04:33:44.399Z,10.52
2023-05-11T04:36:31.239Z,10.35
2023-05-11T04:39:17.899Z,10.61
2023-05-11T04:42:05.327Z,10.62
2023-05-11T04:44:54.925Z,10.52
2023-05-11T04:47:41.536Z,10.67
2023-05-11T04:50:28.837Z,10.84
2023-05-11T04:53:15.573Z,10.74
2023-05-11T04:56:03.172Z,10.69
2023-05-11T04:58:49.726Z,10.81
2023-05-11T05:01:36.467Z,10.73
2023-05-11T05:04:23.063Z,10.93
2023-05-11T05:07:09.280Z,10.95
2023-05-11T05:09:55.550Z,11.07
2023-05-11T05:12:42.110Z,11.04
2023-05-11T05:15:28.716Z,11.09
2023-05-11T05:18:15.171Z,10.98
2023-05-11T05:21:04.932Z,11.07
2023-05-11T05:23:51.528Z,10.98
2023-05-11T05:26:38.270Z,10.96
2023-05-11T05:29:24.903Z,11.23
2023-05-11T05:32:11.929Z,11.19
2023-05-11T05:34:58.233Z,11.25
2023-05-11T05:37:44.968Z,11.34
2023-05-11T05:40:31.731Z,11.10
2023-05-11T05:43:18.462Z,11.29
2023-05-11T05:46:06.046Z,11.43
2023-05-11T05:48:52.247Z,11.52
2023-05-11T05:51:38.662Z,11.41
2023-05-11T05:54:24.920Z,11.54
2023-05-11T05:57:15.010Z,11.59
2023-05-11T06:00:03.798Z,11.72
2023-05-11T06:02:59.390Z,11.75
2023-05-11T06:05:46.985Z,11.88
2023-05-11T06:08:34.330Z,11.88
2023-05-11T06:11:21.736Z,11.98
2023-05-11T06:14:08.895Z,11.88
2023-05-11T06:16:55.462Z,11.90
2023-05-11T06:19:42.487Z,11.88
2023-05-11T06:22:29.173Z,11.99
2023-05-11T06:25:16.049Z,12.03
2023-05-11T06:28:05.435Z,12.01
2023-05-11T06:30:59.088Z,12.09
2023-05-11T06:33:47.439Z,12.21
2023-05-11T06:36:41.161Z,12.09
2023-05-11T06:39:27.803Z,12.13
2023-05-11T06:42:14.360Z,12.30
2023-05-11T06:45:01.242Z,12.43
2023-05-11T06:47:48.385Z,12.37
2023-05-11T06:50:34.679Z,12.28
2023-05-11T06:53:21.094Z,12.40
2023-05-11T06:56:08.246Z,12.48
2023-05-11T06:58:54.971Z,12.36
2023-05-11T07:01:41.478Z,12.44
2023-05-11T07:04:29.661Z,12.39
2023-05-11T07:07:16.238Z,12.71
2023-05-11T07:10:02.486Z,12.73
2023-05-11T07:12:49.417Z,12.72
2023-05-11T07:15:35.688Z,12.58
2023-05-11T07:18:22.057Z,12.87
2023-05-11T07:21:08.757Z,12.91
2023-05-11T07:23:54.805Z,12.91
2023-05-11T07:26:41.313Z,12.89
2023-05-11T07:29:27.946Z,12.83
2023-05-11T07:32:14.485Z,13.00
2023-05-11T07:35:00.785Z,12.99
2023-05-11T07:37:47.089Z,12.77
2023-05-11T07:40:34.797Z,13.01
2023-05-11T07:43:21.436Z,12.85
2023-05-11T07:46:08.088Z,12.95
2023-05-11T07:49:03.441Z,12.74
2023-05-11T07:52:00.478Z,12.96
2023-05-11T07:54:46.638Z,12.93
2023-05-11T07:57:33.071Z,13.11
2023-05-11T08:00:20.388Z,13.00
2023-05-11T08:03:07.331Z,13.27
2023-05-11T08:05:53.667Z,13.09
2023-05-11T08:08:40.208Z,13.19
2023-05-11T08:11:27.578Z,13.23
2023-05-11T08:14:14.255Z,13.46
2023-05-11T08:17:00.890Z,13.38
2023-05-11T08:19:47.162Z,13.43
2023-05-11T08:22:33.416Z,13.52
2023-05-11T08:25:19.798Z,13.46
2023-05-11T08:28:06.394Z,13.39
2023-05-11T08:30:57.162Z,13.74
2023-05-11T08:33:43.729Z,13.71
2023-05-11T08:36:30.301Z,13.85
2023-05-11T08:39:24.899Z,13.93
2023-05-11T08:42:21.971Z,13.80
2023-05-11T08:45:10.488Z,13.70
2023-05-11T08:47:57.014Z,13.48
2023-05-11T08:50:47.155Z,13.67
2023-05-11T08:53:34.714Z,13.62
2023-05-11T08:56:22.247Z,13.58
2023-05-11T08:59:08.695Z,13.38
2023-05-11T09:01:59.359Z,13.65
2023-05-11T09:04:48.593Z,13.74
2023-05-11T09:07:37.347Z,13.45
2023-05-11T09:10:24.177Z,13.81
2023-05-11T09:13:11.861Z,13.81
2023-05-11T09:15:59.398Z,13.95
2023-05-11T09:18:50.492Z,13.88
2023-05-11T09:21:38.428Z,13.94
2023-05-11T09:24:24.932Z,13.96
2023-05-11T09:27:11.466Z,14.23
2023-05-11T09:30:11.236Z,14.25
2023-05-11T09:32:59.569Z,14.31
2023-05-11T09:35:47.100Z,14.27
2023-05-11T09:38:34.131Z,14.28
2023-05-11T09:41:20.738Z,14.23
2023-05-11T09:44:12.694Z,14.30
2023-05-11T09:47:13.864Z,14.06
2023-05-11T09:50:00.315Z,14.20
2023-05-11T09:52:53.813Z,14.35
2023-05-11T09:55:51.878Z,14.34
2023-05-11T09:58:46.216Z,14.27
2023-05-11T10:01:34.402Z,14.17
2023-05-11T10:04:29.776Z,14.50
2023-05-11T10:07:27.164Z,14.55
2023-05-11T10:10:13.966Z,14.80
2023-05-11T10:13:02.730Z,14.60
2023-05-11T10:15:51.843Z,14.69
2023-05-11T10:18:38.476Z,14.81
2023-05-11T10:21:25.000Z,14.54
2023-05-11T10:24:11.830Z,14.58
2023-05-11T10:26:58.878Z,14.77
2023-05-11T10:29:46.552Z,14.64
2023-05-11T10:32:37.987Z,14.43
2023-05-11T10:35:24.918Z,14.49
2023-05-11T10:38:13.382Z,14.79
2023-05-11T10:41:15.083Z,14.74
2023-05-11T10:44:46.684Z,14.73
2023-05-11T10:47:48.042Z,14.88
2023-05-11T10:50:52.141Z,14.72
2023-05-11T10:53:44.548Z,14.91
2023-05-11T10:57:07.053Z,14.88
2023-05-11T11:00:09.393Z,14.90
2023-05-11T11:02:55.797Z,14.86
2023-05-11T11:05:44.981Z,14.74
2023-05-11T11:08:57.941Z,14.82
2023-05-11T11:11:46.415Z,14.67
2023-05-11T11:14:56.820Z,15.05
2023-05-11T11:17:44.692Z,14.95
2023-05-11T11:20:48.709Z,15.16
2023-05-11T11:23:49.103Z,15.74
2023-05-11T11:26:47.272Z,15.84
2023-05-11T11:29:38.378Z,15.84
2023-05-11T11:32:25.633Z,16.06
2023-05-11T11:35:43.265Z,16.24
2023-05-11T11:38:32.896Z,16.58
2023-05-11T11:41:30.174Z,16.34
2023-05-11T11:44:22.811Z,16.68
2023-05-11T11:47:16.287Z,16.64
2023-05-11T11:50:13.273Z,16.14
2023-05-11T11:52:59.831Z,16.36
2023-05-11T11:55:48.623Z,16.41
2023-05-11T11:58:40.977Z,16.28
2023-05-11T12:01:30.691Z,16.21
2023-05-11T12:04:34.457Z,16.37
2023-05-11T12:07:21.372Z,16.77
2023-05-11T12:10:08.360Z,16.70
2023-05-11T12:12:59.209Z,17.02
2023-05-11T12:15:46.469Z,16.96
2023-05-11T12:18:32.980Z,17.11
2023-05-11T12:21:24.765Z,17.22
2023-05-11T12:24:11.784Z,17.14
2023-05-11T12:26:58.134Z,17.26
2023-05-11T12:29:52.037Z,17.14
2023-05-11T12:32:38.828Z,16.93
2023-05-11T12:35:26.594Z,16.96
2023-05-11T12:38:12.848Z,16.81
2023-05-11T12:40:59.865Z,16.98
2023-05-11T12:43:46.306Z,17.30
2023-05-11T12:46:33.405Z,17.53
2023-05-11T12:52:13.556Z,17.73
2023-05-11T12:55:01.097Z,17.51
2023-05-11T12:57:50.488Z,17.41
2023-05-11T13:00:36.755Z,17.02
2023-05-11T13:03:23.933Z,17.26
2023-05-11T13:06:12.399Z,17.34
2023-05-11T13:08:59.229Z,16.97
2023-05-11T13:11:45.757Z,17.13
2023-05-11T13:14:31.986Z,17.03
2023-05-11T13:17:35.636Z,16.86
2023-05-11T13:20:24.477Z,16.77
2023-05-11T13:23:13.293Z,16.91
2023-05-11T13:25:59.553Z,16.96
2023-05-11T13:28:50.309Z,16.31
2023-05-11T13:31:49.225Z,15.98
2023-05-11T13:34:37.241Z,16.31
2023-05-11T13:37:23.580Z,16.58
2023-05-11T13:40:10.493Z,16.60
2023-05-11T13:42:56.888Z,16.85
2023-05-11T13:45:43.246Z,16.49
2023-05-11T13:48:29.610Z,16.75
2023-05-11T13:51:16.001Z,16.64
2023-05-11T13:54:02.597Z,16.97
2023-05-11T13:56:49.089Z,16.87
2023-05-11T13:59:35.481Z,16.97
2023-05-11T14:02:22.189Z,16.85
2023-05-11T14:05:09.063Z,17.02
2023-05-11T14:07:55.625Z,17.08
2023-05-11T14:10:42.666Z,16.96
2023-05-11T14:13:28.771Z,16.79
2023-05-11T14:16:15.169Z,16.66
2023-05-11T14:19:01.283Z,16.86
2023-05-11T14:21:48.568Z,17.02
2023-05-11T14:24:34.965Z,17.00
2023-05-11T14:27:22.192Z,17.05
2023-05-11T14:30:09.247Z,17.05
2023-05-11T14:32:56.028Z,17.31
2023-05-11T14:35:42.311Z,17.48
2023-05-11T14:38:29.352Z,17.34
2023-05-11T14:41:15.849Z,17.31
2023-05-11T14:44:02.387Z,17.25
2023-05-11T14:46:48.776Z,16.85
2023-05-11T14:49:35.532Z,16.47
2023-05-11T14:52:21.815Z,16.83
2023-05-11T14:55:08.953Z,16.89
2023-05-11T14:57:56.427Z,16.89
2023-05-11T15:00:43.770Z,17.08
2023-05-11T15:03:30.472Z,17.08
2023-05-11T15:06:21.224Z,16.95
2023-05-11T15:09:07.753Z,17.18
2023-05-11T15:11:54.172Z,16.67
2023-05-11T15:14:40.414Z,16.61
2023-05-11T15:17:26.677Z,16.85
2023-05-11T15:20:13.356Z,16.78
2023-05-11T15:22:59.899Z,17.10
2023-05-11T15:25:48.174Z,17.14
2023-05-11T15:28:34.740Z,17.33
2023-05-11T15:31:21.111Z,17.20
2023-05-11T15:34:07.566Z,17.28
2023-05-11T15:36:54.174Z,17.10
2023-05-11T15:39:40.838Z,16.92
2023-05-11T15:42:27.143Z,16.73
2023-05-11T15:45:13.419Z,16.87
2023-05-11T15:48:00.259Z,16.60
2023-05-11T15:50:47.540Z,16.45
2023-05-11T15:53:34.134Z,16.09
2023-05-11T15:56:20.573Z,15.98
2023-05-11T15:59:07.269Z,15.85
2023-05-11T16:01:53.933Z,15.66
2023-05-11T16:04:40.447Z,15.64
2023-05-11T16:07:27.221Z,15.81
2023-05-11T16:10:13.614Z,15.85
2023-05-11T16:12:59.931Z,15.78
2023-05-11T16:15:46.476Z,15.83
2023-05-11T16:18:32.803Z,15.52
2023-05-11T16:21:19.188Z,15.33
2023-05-11T16:24:06.250Z,15.02
2023-05-11T16:26:52.627Z,14.98
2023-05-11T16:29:38.605Z,14.81
2023-05-11T16:32:25.279Z,14.50
2023-05-11T16:35:11.434Z,14.65
2023-05-11T16:37:59.344Z,14.35
2023-05-11T16:40:45.945Z,14.50
2023-05-11T16:43:35.483Z,14.19
2023-05-11T16:46:22.522Z,14.35
2023-05-11T16:49:09.035Z,14.31
2023-05-11T16:51:55.406Z,14.22
2023-05-11T16:54:41.559Z,14.22
2023-05-11T16:57:28.121Z,14.32
2023-05-11T17:00:15.321Z,13.86
2023-05-11T17:03:01.903Z,14.20
2023-05-11T17:05:48.695Z,14.26
2023-05-11T17:08:35.133Z,14.05
2023-05-11T17:11:21.592Z,13.99
2023-05-11T17:14:08.342Z,14.11
2023-05-11T17:16:54.634Z,14.20
2023-05-11T17:19:40.722Z,13.93
2023-05-11T17:22:28.315Z,13.77
2023-05-11T17:25:14.905Z,13.67
2023-05-11T17:28:01.127Z,13.82
2023-05-11T17:30:51.190Z,13.53
2023-05-11T17:33:38.290Z,13.51
2023-05-11T17:36:24.691Z,13.34
2023-05-11T17:39:11.815Z,13.27
2023-05-11T17:41:58.057Z,13.14
2023-05-11T17:44:44.587Z,13.47
2023-05-11T17:47:31.514Z,13.02
2023-05-11T17:50:18.419Z,13.23
2023-05-11T17:53:05.369Z,13.06
2023-05-11T17:55:52.984Z,13.25
2023-05-11T17:58:39.247Z,13.10
2023-05-11T18:01:27.393Z,13.19
2023-05-11T18:04:13.726Z,13.15
2023-05-11T18:07:00.309Z,13.13
2023-05-11T18:09:46.552Z,12.89
2023-05-11T18:12:32.945Z,12.73
2023-05-11T18:15:19.270Z,13.03
2023-05-11T18:18:05.675Z,12.80
2023-05-11T18:20:52.093Z,12.93
2023-05-11T18:23:38.450Z,12.74
2023-05-11T18:26:26.074Z,12.82
2023-05-11T18:29:12.389Z,12.43
2023-05-11T18:31:58.824Z,12.51
2023-05-11T18:34:46.361Z,12.60
2023-05-11T18:37:34.185Z,12.49
2023-05-11T18:40:23.485Z,12.33
2023-05-11T18:43:10.073Z,12.26
2023-05-11T18:45:56.368Z,12.31
2023-05-11T18:48:42.705Z,12.11
2023-05-11T18:51:29.361Z,12.26
2023-05-11T18:54:15.606Z,12.03
2023-05-11T18:57:02.427Z,12.07
2023-05-11T18:59:48.546Z,12.11
2023-05-11T19:02:35.142Z,11.84
2023-05-11T19:05:21.767Z,11.96
2023-05-11T19:08:07.980Z,11.97
2023-05-11T19:10:54.051Z,11.87
2023-05-11T19:13:40.604Z,11.95
2023-05-11T19:16:29.313Z,11.71
2023-05-11T19:19:15.552Z,11.51
2023-05-11T19:22:02.086Z,11.58
2023-05-11T19:24:48.412Z,11.50
2023-05-11T19:27:34.603Z,11.28
2023-05-11T19:30:21.512Z,11.65
2023-05-11T19:33:08.245Z,11.51
2023-05-11T19:35:54.544Z,11.54
2023-05-11T19:38:40.959Z,11.55
2023-05-11T19:41:27.535Z,11.49
2023-05-11T19:44:13.720Z,11.52
2023-05-11T19:47:00.417Z,11.52
2023-05-11T19:49:47.547Z,11.44
2023-05-11T19:52:34.921Z,11.43
2023-05-11T19:55:21.674Z,11.50
2023-05-11T19:58:07.987Z,11.50
2023-05-11T20:00:54.943Z,11.29
2023-05-11T20:03:41.369Z,11.44
2023-05-11T20:06:28.119Z,11.23
2023-05-11T20:09:14.183Z,11.25
2023-05-11T20:12:00.650Z,11.30
2023-05-11T20:14:46.891Z,11.45
2023-05-11T20:17:34.758Z,11.51
2023-05-11T20:20:21.780Z,11.33
2023-05-11T20:23:08.315Z,11.08
2023-05-11T20:25:55.089Z,11.20
2023-05-11T20:28:41.352Z,11.24
2023-05-11T20:31:29.750Z,11.00
2023-05-11T20:34:16.427Z,10.99
2023-05-11T20:37:02.935Z,10.93
2023-05-11T20:39:50.181Z,10.83
2023-05-11T20:42:38.318Z,10.81
2023-05-11T20:45:24.464Z,10.81
2023-05-11T20:48:11.001Z,10.74
2023-05-11T20:50:57.592Z,10.67
2023-05-11T20:53:44.057Z,10.57
2023-05-11T20:56:30.409Z,10.22
2023-05-11T21:02:05.954Z,10.41
2023-05-11T21:04:53.144Z,10.34
2023-05-11T21:07:39.609Z,10.32
2023-05-11T21:10:26.243Z,10.39
2023-05-11T21:13:13.173Z,10.39
2023-05-11T21:15:59.426Z,10.73
2023-05-11T21:18:45.947Z,10.83
2023-05-11T21:21:32.765Z,10.48
2023-05-11T21:24:20.152Z,10.67
2023-05-11T21:27:06.428Z,10.61
2023-05-11T21:29:52.736Z,10.28
2023-05-11T21:32:42.458Z,10.46
2023-05-11T21:35:28.941Z,10.27
2023-05-11T21:38:16.926Z,10.34
2023-05-11T21:41:03.564Z,10.42
2023-05-11T21:43:50.447Z,10.37
2023-05-11T21:46:36.676Z,10.34
2023-05-11T21:49:23.421Z,10.48
2023-05-11T21:52:09.806Z,10.47
2023-05-11T21:54:56.030Z,10.45
2023-05-11T21:57:42.259Z,10.56
2023-05-11T22:00:28.600Z,10.36
2023-05-11T22:03:14.801Z,10.67
2023-05-11T22:06:01.333Z,10.72
2023-05-11T22:08:47.812Z,10.45
2023-05-11T22:11:38.389Z,10.74
2023-05-11T22:14:24.658Z,10.43
2023-05-11T22:17:11.027Z,10.31
2023-05-11T22:19:57.144Z,10.32
2023-05-11T22:22:43.463Z,10.29
2023-05-11T22:25:29.905Z,10.36
2023-05-11T22:28:15.998Z,10.37
2023-05-11T22:31:02.431Z,10.46
2023-05-11T22:33:48.764Z,10.44
2023-05-11T22:36:34.865Z,10.31
2023-05-11T22:39:21.701Z,10.42
2023-05-11T22:42:08.259Z,10.25
2023-05-11T22:44:54.563Z,10.37
2023-05-11T22:47:40.944Z,10.37
2023-05-11T22:50:27.948Z,10.22
2023-05-11T22:53:14.755Z,10.35
2023-05-11T22:56:05.423Z,10.48
2023-05-11T22:58:52.905Z,10.63
2023-05-11T23:01:39.425Z,10.82
2023-05-11T23:04:25.691Z,10.85
2023-05-11T23:07:12.824Z,10.86
2023-05-11T23:09:59.506Z,10.87
2023-05-11T23:12:45.976Z,10.38
2023-05-11T23:15:32.488Z,10.84
2023-05-11T23:18:18.594Z,10.67
2023-05-11T23:21:05.243Z,10.47
2023-05-11T23:23:52.019Z,10.38
2023-05-11T23:26:38.411Z,10.47
2023-05-11T23:29:24.726Z,10.19
2023-05-11T23:32:11.148Z,10.37
2023-05-11T23:34:57.318Z,10.31
2023-05-11T23:37:43.879Z,10.45
2023-05-11T23:40:30.915Z,10.35
2023-05-11T23:43:17.265Z,10.23
2023-05-11T23:46:03.939Z,10.28
2023-05-11T23:48:50.282Z,10.39
2023-05-11T23:51:36.569Z,10.40
2023-05-11T23:54:23.124Z,10.38
2023-05-11T23:57:09.455Z,10.41
2023-05-11T23:59:56.031Z,10.38
